createdAt,value
2022-10-21T00:01:06.174Z,23.70
2022-10-21T00:03:34.409Z,19.65
2022-10-21T00:06:03.091Z,19.20
2022-10-21T00:08:31.434Z,23.67
2022-10-21T00:11:02.038Z,19.30
2022-10-21T00:13:34.053Z,17.25
2022-10-21T00:16:05.057Z,21.87
2022-10-21T00:18:33.690Z,22.73
2022-10-21T00:21:01.970Z,22.60
2022-10-21T00:23:30.307Z,19.15
2022-10-21T00:25:59.012Z,19.35
2022-10-21T00:28:27.823Z,18.75
2022-10-21T00:31:16.122Z,22.82
2022-10-21T00:33:44.795Z,22.80
2022-10-21T00:36:14.352Z,17.98
2022-10-21T00:38:47.664Z,20.70
2022-10-21T00:41:17.672Z,22.40
2022-10-21T00:44:07.518Z,22.27
2022-10-21T00:46:47.927Z,22.62
2022-10-21T00:49:21.960Z,21.33
2022-10-21T00:51:53.472Z,19.80
2022-10-21T00:54:22.781Z,22.27
2022-10-21T00:59:21.273Z,18.57
2022-10-21T01:01:49.852Z,22.40
2022-10-21T01:04:18.341Z,23.40
2022-10-21T01:06:47.455Z,24.25
2022-10-21T01:09:17.709Z,22.22
2022-10-21T01:11:46.855Z,23.25
2022-10-21T01:14:35.513Z,23.57
2022-10-21T01:17:26.525Z,22.10
2022-10-21T01:19:58.773Z,20.15
2022-10-21T01:22:37.419Z,20.80
2022-10-21T01:25:18.284Z,20.95
2022-10-21T01:28:01.514Z,23.15
2022-10-21T01:30:35.920Z,18.92
2022-10-21T01:33:27.036Z,22.82
2022-10-21T01:36:21.317Z,19.80
2022-10-21T01:38:54.456Z,18.50
2022-10-21T01:41:35.278Z,19.98
2022-10-21T01:44:09.311Z,23.15
2022-10-21T01:46:46.277Z,19.90
2022-10-21T01:49:29.357Z,20.05
2022-10-21T01:51:58.633Z,21.45
2022-10-21T01:54:48.372Z,22.93
2022-10-21T01:57:18.736Z,18.98
2022-10-21T01:59:48.983Z,21.80
2022-10-21T02:02:18.169Z,21.33
2022-10-21T02:04:48.188Z,23.90
2022-10-21T02:07:15.619Z,21.75
2022-10-21T02:09:44.271Z,25.45
2022-10-21T02:12:12.379Z,22.15
2022-10-21T02:14:46.853Z,21.73
2022-10-21T02:17:20.578Z,24.25
2022-10-21T02:19:49.539Z,22.48
2022-10-21T02:22:20.813Z,23.32
2022-10-21T02:25:02.004Z,24.07
2022-10-21T02:27:30.101Z,20.90
2022-10-21T02:30:00.195Z,20.97
2022-10-21T02:32:48.452Z,18.32
2022-10-21T02:35:39.835Z,22.00
2022-10-21T02:38:26.059Z,21.25
2022-10-21T02:41:00.588Z,24.07
2022-10-21T02:46:04.182Z,20.70
2022-10-21T02:48:34.519Z,22.73
2022-10-21T02:51:05.756Z,19.32
2022-10-21T02:53:34.747Z,21.50
2022-10-21T02:56:03.099Z,23.25
2022-10-21T02:58:41.692Z,28.52
2022-10-21T03:01:09.376Z,20.32
2022-10-21T03:03:37.074Z,19.35
2022-10-21T03:06:04.827Z,22.15
2022-10-21T03:08:34.473Z,21.23
2022-10-21T03:11:02.072Z,22.17
2022-10-21T03:13:30.141Z,18.35
2022-10-21T03:16:00.880Z,21.30
2022-10-21T03:18:28.765Z,19.67
2022-10-21T03:20:56.583Z,21.55
2022-10-21T03:23:24.204Z,21.17
2022-10-21T03:25:51.760Z,20.52
2022-10-21T03:28:21.063Z,22.15
2022-10-21T03:30:49.311Z,21.48
2022-10-21T03:33:21.671Z,18.98
2022-10-21T03:35:49.380Z,19.10
2022-10-21T03:38:17.546Z,22.77
2022-10-21T03:40:45.207Z,19.80
2022-10-21T03:43:12.997Z,20.75
2022-10-21T03:45:40.637Z,23.83
2022-10-21T03:48:08.638Z,22.17
2022-10-21T03:50:36.792Z,19.00
2022-10-21T03:53:13.702Z,19.65
2022-10-21T03:55:34.456Z,17.65
2022-10-21T03:58:02.126Z,24.00
2022-10-21T04:00:33.260Z,20.70
2022-10-21T04:03:02.168Z,19.12
2022-10-21T04:05:29.730Z,19.00
2022-10-21T04:07:57.269Z,19.52
2022-10-21T04:10:25.444Z,19.02
2022-10-21T04:12:53.621Z,20.10
2022-10-21T04:15:21.305Z,18.35
2022-10-21T04:17:51.244Z,20.25
2022-10-21T04:20:21.826Z,18.23
2022-10-21T04:22:49.812Z,21.75
2022-10-21T04:25:17.462Z,22.58
2022-10-21T04:27:45.429Z,19.65
2022-10-21T04:30:13.710Z,19.62
2022-10-21T04:32:43.232Z,22.45
2022-10-21T04:35:10.954Z,18.27
2022-10-21T04:37:41.371Z,15.60
2022-10-21T04:40:13.101Z,21.57
2022-10-21T04:42:43.202Z,16.75
2022-10-21T04:45:12.027Z,16.02
2022-10-21T04:47:39.889Z,16.93
2022-10-21T04:50:08.107Z,15.20
2022-10-21T04:52:36.071Z,19.07
2022-10-21T04:55:05.677Z,18.10
2022-10-21T04:57:33.662Z,15.48
2022-10-21T05:00:02.463Z,17.90
2022-10-21T05:02:30.998Z,17.65
2022-10-21T05:05:00.133Z,16.30
2022-10-21T05:07:27.785Z,15.55
2022-10-21T05:09:56.162Z,22.40
2022-10-21T05:12:24.853Z,14.83
2022-10-21T05:14:52.717Z,11.70
2022-10-21T05:17:21.367Z,15.18
2022-10-21T05:19:49.958Z,17.32
2022-10-21T05:22:20.508Z,14.50
2022-10-21T05:24:48.481Z,14.73
2022-10-21T05:27:16.270Z,18.65
2022-10-21T05:29:44.056Z,20.25
2022-10-21T05:32:11.778Z,16.45
2022-10-21T05:37:21.426Z,13.48
2022-10-21T05:39:50.198Z,18.05
2022-10-21T05:42:19.445Z,13.03
2022-10-21T05:44:47.578Z,17.92
2022-10-21T05:47:17.973Z,17.17
2022-10-21T05:49:46.796Z,12.60
2022-10-21T05:52:14.473Z,16.05
2022-10-21T05:54:42.260Z,13.85
2022-10-21T05:57:10.044Z,13.55
2022-10-21T05:59:39.076Z,15.48
2022-10-21T06:02:07.375Z,13.90
2022-10-21T06:04:37.983Z,17.05
2022-10-21T06:07:04.381Z,17.35
2022-10-21T06:09:32.233Z,15.72
2022-10-21T06:12:03.296Z,24.70
2022-10-21T06:17:29.783Z,21.17
2022-10-21T06:19:59.716Z,17.62
2022-10-21T06:22:55.745Z,19.77
2022-10-21T06:25:30.580Z,21.90
2022-10-21T06:28:50.211Z,21.48
2022-10-21T06:31:04.416Z,22.70
2022-10-21T06:33:32.548Z,28.40
2022-10-21T06:36:01.233Z,26.15
2022-10-21T06:38:29.543Z,24.30
2022-10-21T06:41:09.226Z,20.15
2022-10-21T06:46:25.694Z,26.20
2022-10-21T06:48:53.486Z,26.33
2022-10-21T06:51:22.995Z,23.73
2022-10-21T06:53:56.635Z,37.93
2022-10-21T06:56:25.971Z,43.73
2022-10-21T06:58:56.630Z,29.48
2022-10-21T07:01:40.978Z,23.92
2022-10-21T07:03:59.913Z,28.38
2022-10-21T07:06:27.610Z,22.32
2022-10-21T07:08:58.853Z,24.63
2022-10-21T07:11:27.914Z,28.02
2022-10-21T07:13:56.513Z,24.92
2022-10-21T07:16:27.639Z,22.98
2022-10-21T07:18:56.065Z,22.37
2022-10-21T07:21:27.153Z,21.75
2022-10-21T07:23:59.820Z,24.80
2022-10-21T07:26:30.508Z,20.90
2022-10-21T07:28:59.846Z,20.65
2022-10-21T07:31:30.581Z,18.10
2022-10-21T07:34:00.235Z,20.08
2022-10-21T07:36:30.033Z,20.35
2022-10-21T07:39:01.345Z,22.30
2022-10-21T07:41:32.869Z,18.92
2022-10-21T07:44:01.433Z,22.93
2022-10-21T07:46:29.179Z,23.05
2022-10-21T07:48:57.358Z,21.00
2022-10-21T07:51:31.028Z,26.12
2022-10-21T07:54:00.473Z,29.07
2022-10-21T07:56:31.915Z,23.35
2022-10-21T07:59:02.624Z,21.40
2022-10-21T08:01:30.583Z,17.60
2022-10-21T08:03:59.910Z,20.32
2022-10-21T08:06:29.080Z,24.37
2022-10-21T08:08:59.962Z,22.60
2022-10-21T08:11:31.296Z,24.80
2022-10-21T08:13:59.757Z,25.70
2022-10-21T08:16:34.780Z,24.75
2022-10-21T08:19:03.504Z,23.02
2022-10-21T08:21:31.464Z,26.42
2022-10-21T08:24:01.626Z,22.30
2022-10-21T08:26:29.783Z,30.30
2022-10-21T08:31:25.596Z,31.50
2022-10-21T08:33:53.381Z,24.23
2022-10-21T08:36:23.793Z,23.00
2022-10-21T08:38:52.477Z,22.55
2022-10-21T08:41:52.975Z,23.67
2022-10-21T08:44:55.186Z,25.60
2022-10-21T08:47:35.404Z,23.62
2022-10-21T08:50:15.958Z,21.02
2022-10-21T08:53:05.158Z,21.70
2022-10-21T08:55:37.005Z,20.82
2022-10-21T08:58:05.660Z,22.55
2022-10-21T09:00:39.889Z,16.67
2022-10-21T09:03:23.111Z,18.98
2022-10-21T09:06:14.237Z,22.95
2022-10-21T09:09:15.887Z,22.10
2022-10-21T09:11:53.205Z,24.87
2022-10-21T09:14:56.278Z,17.57
2022-10-21T09:17:58.883Z,21.77
2022-10-21T09:20:31.632Z,27.65
2022-10-21T09:23:22.544Z,19.10
2022-10-21T09:26:05.783Z,23.38
2022-10-21T09:28:37.098Z,23.70
2022-10-21T09:31:15.439Z,24.95
2022-10-21T09:33:51.197Z,21.42
2022-10-21T09:36:24.764Z,22.22
2022-10-21T09:39:04.912Z,18.73
2022-10-21T09:41:42.048Z,26.30
2022-10-21T09:44:19.000Z,24.30
2022-10-21T09:46:49.027Z,20.17
2022-10-21T09:52:04.876Z,19.52
2022-10-21T09:54:39.550Z,30.17
2022-10-21T09:57:17.171Z,22.90
2022-10-21T10:00:04.034Z,20.40
2022-10-21T10:02:49.257Z,22.67
2022-10-21T10:05:45.109Z,24.80
2022-10-21T10:08:34.271Z,20.15
2022-10-21T10:11:10.392Z,17.07
2022-10-21T10:13:50.679Z,16.48
2022-10-21T10:16:25.210Z,16.52
2022-10-21T10:18:55.701Z,13.35
2022-10-21T10:21:24.757Z,16.15
2022-10-21T10:23:55.292Z,17.25
2022-10-21T10:26:36.654Z,12.98
2022-10-21T10:29:17.084Z,16.32
2022-10-21T10:31:51.239Z,14.07
2022-10-21T10:34:22.383Z,14.23
2022-10-21T10:36:51.228Z,15.40
2022-10-21T10:39:32.552Z,11.03
2022-10-21T10:42:01.399Z,16.15
2022-10-21T10:44:33.017Z,15.18
2022-10-21T10:47:03.453Z,18.57
2022-10-21T10:49:40.063Z,13.38
2022-10-21T10:52:14.626Z,14.20
2022-10-21T10:54:50.535Z,18.12
2022-10-21T10:57:39.036Z,13.20
2022-10-21T11:00:17.099Z,14.25
2022-10-21T11:02:48.753Z,16.10
2022-10-21T11:05:29.484Z,13.13
2022-10-21T11:08:04.561Z,15.25
2022-10-21T11:10:35.900Z,15.05
2022-10-21T11:13:19.641Z,12.25
2022-10-21T11:15:57.028Z,13.70
2022-10-21T11:18:37.612Z,11.95
2022-10-21T11:21:18.153Z,16.25
2022-10-21T11:24:01.292Z,18.67
2022-10-21T11:26:44.423Z,16.17
2022-10-21T11:29:30.809Z,16.20
2022-10-21T11:32:14.336Z,11.97
2022-10-21T11:35:01.356Z,15.85
2022-10-21T11:37:33.007Z,18.87
2022-10-21T11:40:16.633Z,16.73
2022-10-21T11:42:47.590Z,16.10
2022-10-21T11:45:44.617Z,15.58
2022-10-21T11:48:18.953Z,16.97
2022-10-21T11:51:05.168Z,18.50
2022-10-21T11:54:13.525Z,21.95
2022-10-21T11:56:54.233Z,17.12
2022-10-21T12:00:00.816Z,12.55
2022-10-21T12:02:43.193Z,17.27
2022-10-21T12:05:38.733Z,17.60
2022-10-21T12:10:44.191Z,19.95
2022-10-21T12:13:24.889Z,21.12
2022-10-21T12:16:01.272Z,27.17
2022-10-21T12:18:30.808Z,19.32
2022-10-21T12:20:59.417Z,15.38
2022-10-21T12:23:30.235Z,16.00
2022-10-21T12:26:21.445Z,12.07
2022-10-21T12:29:04.565Z,15.50
2022-10-21T12:31:54.890Z,13.43
2022-10-21T12:34:24.720Z,17.57
2022-10-21T12:36:55.399Z,15.05
2022-10-21T12:39:48.595Z,15.45
2022-10-21T12:42:21.694Z,13.68
2022-10-21T12:44:51.631Z,14.75
2022-10-21T12:47:26.384Z,11.93
2022-10-21T12:50:08.821Z,10.80
2022-10-21T12:52:38.181Z,12.03
2022-10-21T12:55:09.910Z,13.72
2022-10-21T12:57:41.016Z,18.67
2022-10-21T13:00:29.853Z,14.20
2022-10-21T13:03:07.504Z,14.50
2022-10-21T13:05:42.056Z,11.78
2022-10-21T13:08:23.147Z,12.78
2022-10-21T13:11:07.330Z,13.18
2022-10-21T13:13:44.469Z,20.92
2022-10-21T13:16:25.016Z,14.13
2022-10-21T13:19:05.531Z,13.58
2022-10-21T13:21:42.758Z,14.18
2022-10-21T13:24:26.132Z,10.75
2022-10-21T13:27:03.262Z,13.25
2022-10-21T13:29:47.912Z,11.50
2022-10-21T13:32:19.490Z,16.23
2022-10-21T13:35:20.363Z,13.40
2022-10-21T13:37:57.561Z,13.78
2022-10-21T13:40:31.799Z,14.15
2022-10-21T13:43:03.206Z,13.32
2022-10-21T13:45:37.488Z,15.18
2022-10-21T13:48:08.428Z,14.87
2022-10-21T13:50:41.792Z,12.43
2022-10-21T13:53:25.153Z,13.60
2022-10-21T13:58:58.876Z,13.13
2022-10-21T14:01:31.164Z,11.55
2022-10-21T14:04:17.837Z,11.78
2022-10-21T14:06:58.420Z,13.08
2022-10-21T14:09:30.050Z,11.48
2022-10-21T14:12:01.919Z,13.72
2022-10-21T14:14:30.875Z,12.85
2022-10-21T14:17:03.399Z,17.75
2022-10-21T14:19:38.306Z,15.28
2022-10-21T14:24:44.788Z,9.33
2022-10-21T14:27:19.444Z,14.13
2022-10-21T14:29:47.946Z,11.22
2022-10-21T14:32:18.213Z,12.20
2022-10-21T14:35:10.508Z,14.18
2022-10-21T14:37:53.404Z,15.35
2022-10-21T14:40:26.860Z,12.23
2022-10-21T14:42:55.774Z,10.32
2022-10-21T14:45:33.299Z,10.93
2022-10-21T14:48:10.882Z,11.43
2022-10-21T14:50:40.670Z,14.23
2022-10-21T14:53:20.508Z,11.57
2022-10-21T14:55:51.363Z,12.53
2022-10-21T14:58:31.239Z,11.93
2022-10-21T15:01:09.030Z,10.35
2022-10-21T15:03:46.692Z,11.90
2022-10-21T15:06:21.354Z,11.75
2022-10-21T15:09:01.786Z,10.08
2022-10-21T15:11:36.147Z,9.48
2022-10-21T15:14:16.421Z,10.65
2022-10-21T15:16:53.779Z,13.32
2022-10-21T15:19:33.464Z,17.25
2022-10-21T15:22:03.438Z,11.08
2022-10-21T15:24:38.179Z,14.05
2022-10-21T15:27:05.836Z,18.40
2022-10-21T15:29:37.162Z,11.63
2022-10-21T15:32:07.609Z,16.82
2022-10-21T15:34:38.706Z,9.93
2022-10-21T15:37:07.697Z,9.93
2022-10-21T15:39:35.212Z,10.58
2022-10-21T15:42:02.965Z,9.00
2022-10-21T15:44:35.652Z,13.10
2022-10-21T15:47:11.582Z,12.63
2022-10-21T15:49:43.846Z,14.83
2022-10-21T15:52:14.103Z,16.85
2022-10-21T15:54:43.124Z,13.05
2022-10-21T15:57:20.375Z,12.40
2022-10-21T15:59:48.853Z,11.73
2022-10-21T16:02:17.718Z,11.22
2022-10-21T16:04:46.024Z,14.70
2022-10-21T16:07:30.650Z,17.65
2022-10-21T16:09:59.325Z,12.70
2022-10-21T16:12:26.998Z,12.35
2022-10-21T16:14:56.541Z,13.18
2022-10-21T16:17:26.938Z,11.25
2022-10-21T16:19:55.331Z,10.68
2022-10-21T16:22:23.308Z,14.10
2022-10-21T16:24:51.065Z,10.48
2022-10-21T16:27:26.554Z,13.48
2022-10-21T16:29:50.399Z,13.72
2022-10-21T16:32:18.568Z,13.15
2022-10-21T16:34:47.040Z,14.58
2022-10-21T16:37:26.686Z,13.30
2022-10-21T16:39:54.727Z,10.30
2022-10-21T16:42:22.038Z,11.97
2022-10-21T16:45:10.277Z,14.83
2022-10-21T16:47:38.526Z,11.10
2022-10-21T16:50:07.545Z,9.45
2022-10-21T16:52:36.921Z,11.75
2022-10-21T16:55:06.745Z,10.58
2022-10-21T16:57:34.500Z,13.60
2022-10-21T17:00:02.281Z,11.93
2022-10-21T17:02:30.065Z,11.55
2022-10-21T17:04:58.188Z,10.15
2022-10-21T17:07:25.989Z,10.23
2022-10-21T17:09:53.329Z,11.53
2022-10-21T17:12:21.423Z,13.25
2022-10-21T17:14:49.881Z,11.88
2022-10-21T17:17:24.195Z,9.13
2022-10-21T17:19:52.884Z,9.83
2022-10-21T17:22:21.071Z,11.20
2022-10-21T17:24:50.337Z,8.25
2022-10-21T17:27:19.785Z,16.20
2022-10-21T17:29:47.721Z,11.15
2022-10-21T17:32:15.593Z,11.22
2022-10-21T17:34:43.539Z,10.05
2022-10-21T17:37:12.246Z,11.48
2022-10-21T17:39:41.146Z,12.75
2022-10-21T17:42:10.129Z,8.00
2022-10-21T17:44:37.924Z,11.53
2022-10-21T17:47:05.557Z,8.53
2022-10-21T17:49:33.933Z,9.78
2022-10-21T17:52:01.850Z,12.10
2022-10-21T17:54:32.649Z,11.35
2022-10-21T17:57:00.829Z,8.23
2022-10-21T17:59:28.707Z,12.73
2022-10-21T18:01:57.054Z,10.43
2022-10-21T18:04:25.415Z,11.25
2022-10-21T18:06:53.030Z,10.03
2022-10-21T18:09:21.238Z,12.75
2022-10-21T18:11:52.417Z,12.50
2022-10-21T18:14:20.456Z,9.85
2022-10-21T18:16:48.085Z,8.45
2022-10-21T18:19:17.213Z,10.10
2022-10-21T18:21:45.331Z,8.40
2022-10-21T18:24:13.295Z,8.45
2022-10-21T18:26:40.886Z,10.85
2022-10-21T18:29:08.761Z,11.78
2022-10-21T18:31:38.110Z,9.28
2022-10-21T18:34:09.350Z,10.38
2022-10-21T18:36:44.433Z,11.85
2022-10-21T18:39:14.412Z,17.73
2022-10-21T18:41:48.819Z,15.18
2022-10-21T18:44:16.706Z,12.50
2022-10-21T18:46:46.617Z,10.08
2022-10-21T18:49:35.912Z,9.13
2022-10-21T18:52:05.233Z,11.45
2022-10-21T18:54:33.479Z,12.55
2022-10-21T18:57:01.638Z,9.10
2022-10-21T18:59:29.725Z,10.93
2022-10-21T19:01:57.812Z,9.98
2022-10-21T19:04:25.782Z,8.95
2022-10-21T19:06:53.927Z,9.45
2022-10-21T19:09:23.609Z,9.28
2022-10-21T19:11:51.192Z,8.98
2022-10-21T19:14:21.731Z,11.90
2022-10-21T19:17:02.507Z,9.65
2022-10-21T19:19:34.801Z,13.28
2022-10-21T19:22:01.638Z,10.48
2022-10-21T19:24:30.846Z,10.68
2022-10-21T19:26:59.583Z,10.55
2022-10-21T19:29:31.102Z,8.35
2022-10-21T19:31:59.621Z,11.08
2022-10-21T19:34:27.676Z,10.75
2022-10-21T19:36:55.456Z,10.40
2022-10-21T19:39:23.628Z,9.03
2022-10-21T19:41:51.153Z,10.38
2022-10-21T19:44:18.967Z,7.58
2022-10-21T19:46:46.781Z,8.60
2022-10-21T19:49:15.553Z,10.32
2022-10-21T19:51:45.009Z,11.60
2022-10-21T19:54:14.138Z,9.35
2022-10-21T19:56:42.881Z,9.90
2022-10-21T19:59:11.267Z,12.13
2022-10-21T20:01:39.349Z,12.15
2022-10-21T20:04:13.333Z,13.70
2022-10-21T20:06:41.325Z,8.88
2022-10-21T20:09:11.695Z,9.25
2022-10-21T20:11:48.066Z,10.98
2022-10-21T20:14:23.877Z,9.65
2022-10-21T20:16:54.601Z,8.35
2022-10-21T20:19:22.573Z,12.65
2022-10-21T20:21:50.863Z,12.47
2022-10-21T20:24:19.879Z,9.90
2022-10-21T20:26:49.360Z,10.65
2022-10-21T20:29:19.246Z,12.18
2022-10-21T20:31:48.229Z,12.28
2022-10-21T20:34:17.087Z,11.25
2022-10-21T20:36:45.626Z,11.55
2022-10-21T20:39:13.894Z,12.58
2022-10-21T20:41:42.216Z,12.78
2022-10-21T20:44:13.921Z,11.40
2022-10-21T20:46:53.641Z,12.03
2022-10-21T20:49:41.366Z,12.65
2022-10-21T20:52:09.876Z,11.88
2022-10-21T20:54:42.823Z,9.48
2022-10-21T20:57:32.296Z,11.85
2022-10-21T21:00:08.918Z,9.95
2022-10-21T21:02:37.814Z,11.57
2022-10-21T21:05:08.859Z,10.28
2022-10-21T21:07:38.840Z,9.83
2022-10-21T21:10:07.953Z,9.15
2022-10-21T21:12:35.732Z,12.63
2022-10-21T21:15:05.624Z,12.70
2022-10-21T21:17:33.410Z,9.78
2022-10-21T21:20:01.994Z,11.88
2022-10-21T21:22:30.337Z,10.82
2022-10-21T21:25:00.775Z,12.58
2022-10-21T21:27:29.690Z,11.93
2022-10-21T21:29:57.948Z,9.03
2022-10-21T21:32:25.715Z,10.82
2022-10-21T21:34:57.160Z,9.40
2022-10-21T21:37:26.293Z,12.18
2022-10-21T21:39:54.165Z,12.23
2022-10-21T21:42:42.177Z,12.58
2022-10-21T21:45:10.727Z,7.95
2022-10-21T21:47:38.675Z,15.85
2022-10-21T21:50:08.484Z,12.43
2022-10-21T21:52:36.326Z,8.95
2022-10-21T21:55:04.092Z,10.98
2022-10-21T21:57:31.520Z,13.18
2022-10-21T21:59:58.890Z,11.48
2022-10-21T22:02:39.801Z,9.08
2022-10-21T22:05:08.635Z,10.08
2022-10-21T22:07:36.679Z,10.40
2022-10-21T22:10:05.904Z,11.15
2022-10-21T22:12:34.382Z,12.45
2022-10-21T22:15:02.375Z,14.58
2022-10-21T22:17:31.145Z,13.32
2022-10-21T22:19:58.832Z,11.97
2022-10-21T22:22:26.287Z,10.53
2022-10-21T22:25:14.780Z,9.90
2022-10-21T22:28:05.190Z,10.82
2022-10-21T22:30:33.197Z,8.68
2022-10-21T22:33:02.169Z,12.90
2022-10-21T22:35:30.339Z,12.73
2022-10-21T22:38:01.584Z,10.00
2022-10-21T22:40:29.499Z,11.40
2022-10-21T22:42:57.768Z,10.78
2022-10-21T22:45:25.517Z,13.10
2022-10-21T22:47:53.410Z,10.65
2022-10-21T22:50:20.864Z,10.43
2022-10-21T22:52:48.421Z,13.32
2022-10-21T22:55:16.084Z,12.07
2022-10-21T22:57:43.947Z,9.78
2022-10-21T23:00:12.281Z,11.22
2022-10-21T23:02:40.678Z,10.53
2022-10-21T23:05:09.526Z,10.88
2022-10-21T23:07:37.576Z,9.98
2022-10-21T23:12:34.925Z,10.53
2022-10-21T23:15:02.892Z,9.18
2022-10-21T23:17:31.263Z,11.83
2022-10-21T23:19:59.442Z,11.22
2022-10-21T23:22:27.113Z,10.50
2022-10-21T23:24:54.706Z,12.90
2022-10-21T23:27:22.652Z,12.85
2022-10-21T23:29:50.089Z,11.08
2022-10-21T23:32:17.776Z,10.13
2022-10-21T23:34:45.646Z,13.13
2022-10-21T23:37:14.161Z,10.18
2022-10-21T23:39:42.966Z,12.70
2022-10-21T23:42:10.651Z,10.28
2022-10-21T23:44:38.618Z,11.53
2022-10-21T23:47:09.533Z,10.90
2022-10-21T23:49:37.372Z,12.73
2022-10-21T23:52:06.412Z,11.53
2022-10-21T23:54:53.895Z,12.20
2022-10-21T23:57:21.653Z,10.10
2022-10-21T23:59:49.373Z,8.95
